Main page
METAR-TAF:

METAR-TAF

Airports :

Ostend–Bruges International Airport

Ostend, Belgium

latitude: 51-12N, longitude: 002-52E, elevation: 4 m

Current weather observation

The report was made 14 minutes ago, at 21:20 UTC
Wind 10 kt from the Northwest
Temperature 4°C
Humidity 81%
Pressure 1023 hPa
Visibility 10 km or more
Few clouds at a height of 2000 ft

METAR: EBOS 112120Z 32010KT 9999 FEW020 04/01 Q1023 NOSIG

Time: 23:34 (21:34 UTC)

Forecast

The report was made 4 hours and 24 minutes ago, at 17:10 UTC
Forecast valid from 11 at 18 UTC to 12 at 24 UTC
Wind 9 kt from the North/Northwest
Visibility 10 km or more
Few clouds at a height of 2500 ft, Towering cumulus.
Scattered clouds at a height of 3000 ft
Temporary
from 11 at 22 UTC to 12 at 12 UTC
Visibility: 4000 m
Broken clouds at a height of 1400 ft, Cumulonimbus.
rain showers, small hail or snow pellets

TAF: EBOS 111710Z 1118/1224 33009KT 9999 FEW025TCU SCT030 TEMPO 1122/1212 4000 SHRAGS BKN014CB

Weather observations and forecasts of more than 4000 airports (METAR and TAF reports).

The available stations are represented by yellow and red dots on the map.

Hover mouse over dot to see the name of the station.

Then click to see weather observations and forecasts.

To change the map : click on the green buttons with a black cross to zoom in, on the green button with a dash to zoom out, or on the green arrows for adjacent maps.


METAR-TAF: